sensor_id;sensor_type;location;lat;lon;timestamp;P1;durP1;ratioP1;P2;durP2;ratioP2
16660;SDS011;8444;52.012;5.048;2023-02-28T00:02:06;4.13;;;1.87;;
16660;SDS011;8444;52.012;5.048;2023-02-28T00:04:31;4.27;;;2.37;;
16660;SDS011;8444;52.012;5.048;2023-02-28T00:06:56;6.00;;;2.23;;
16660;SDS011;8444;52.012;5.048;2023-02-28T00:09:22;4.80;;;2.83;;
16660;SDS011;8444;52.012;5.048;2023-02-28T00:11:47;3.27;;;2.10;;
16660;SDS011;8444;52.012;5.048;2023-02-28T00:14:12;3.97;;;2.10;;
16660;SDS011;8444;52.012;5.048;2023-02-28T00:16:37;6.17;;;2.80;;
16660;SDS011;8444;52.012;5.048;2023-02-28T00:19:02;2.60;;;2.10;;
16660;SDS011;8444;52.012;5.048;2023-02-28T00:21:28;5.13;;;2.20;;
16660;SDS011;8444;52.012;5.048;2023-02-28T00:23:53;3.97;;;2.13;;
16660;SDS011;8444;52.012;5.048;2023-02-28T00:26:18;3.10;;;2.43;;
16660;SDS011;8444;52.012;5.048;2023-02-28T00:28:43;6.77;;;2.50;;
16660;SDS011;8444;52.012;5.048;2023-02-28T00:31:08;7.07;;;2.20;;
16660;SDS011;8444;52.012;5.048;2023-02-28T00:33:34;8.67;;;2.50;;
16660;SDS011;8444;52.012;5.048;2023-02-28T00:36:06;3.80;;;2.20;;
16660;SDS011;8444;52.012;5.048;2023-02-28T00:38:32;4.93;;;2.23;;
16660;SDS011;8444;52.012;5.048;2023-02-28T00:40:57;5.20;;;2.73;;
16660;SDS011;8444;52.012;5.048;2023-02-28T00:43:23;3.17;;;2.10;;
16660;SDS011;8444;52.012;5.048;2023-02-28T00:45:48;2.63;;;2.17;;
16660;SDS011;8444;52.012;5.048;2023-02-28T00:48:14;3.67;;;2.70;;
16660;SDS011;8444;52.012;5.048;2023-02-28T00:50:39;4.40;;;2.53;;
16660;SDS011;8444;52.012;5.048;2023-02-28T00:53:04;5.03;;;2.50;;
16660;SDS011;8444;52.012;5.048;2023-02-28T00:55:29;4.03;;;1.90;;
16660;SDS011;8444;52.012;5.048;2023-02-28T00:57:54;5.30;;;3.20;;
16660;SDS011;8444;52.012;5.048;2023-02-28T01:00:20;10.50;;;3.10;;
16660;SDS011;8444;52.012;5.048;2023-02-28T01:02:45;5.60;;;3.17;;
16660;SDS011;8444;52.012;5.048;2023-02-28T01:05:10;5.73;;;2.83;;
16660;SDS011;8444;52.012;5.048;2023-02-28T01:07:35;6.73;;;2.33;;
16660;SDS011;8444;52.012;5.048;2023-02-28T01:10:00;6.50;;;2.50;;
16660;SDS011;8444;52.012;5.048;2023-02-28T01:12:26;4.30;;;2.60;;
16660;SDS011;8444;52.012;5.048;2023-02-28T01:14:51;5.43;;;2.80;;
16660;SDS011;8444;52.012;5.048;2023-02-28T01:17:16;7.10;;;3.60;;
16660;SDS011;8444;52.012;5.048;2023-02-28T01:19:41;5.27;;;2.80;;
16660;SDS011;8444;52.012;5.048;2023-02-28T01:22:06;2.90;;;2.50;;
16660;SDS011;8444;52.012;5.048;2023-02-28T01:24:32;4.40;;;2.70;;
16660;SDS011;8444;52.012;5.048;2023-02-28T01:26:57;3.07;;;2.13;;
16660;SDS011;8444;52.012;5.048;2023-02-28T01:29:22;4.97;;;2.87;;
16660;SDS011;8444;52.012;5.048;2023-02-28T01:31:48;6.63;;;3.10;;
16660;SDS011;8444;52.012;5.048;2023-02-28T01:34:13;5.23;;;2.80;;
16660;SDS011;8444;52.012;5.048;2023-02-28T01:36:38;7.27;;;3.33;;
16660;SDS011;8444;52.012;5.048;2023-02-28T01:39:03;3.27;;;2.40;;
16660;SDS011;8444;52.012;5.048;2023-02-28T01:41:30;5.10;;;2.67;;
16660;SDS011;8444;52.012;5.048;2023-02-28T01:43:57;6.90;;;2.90;;
16660;SDS011;8444;52.012;5.048;2023-02-28T01:46:23;5.57;;;3.13;;
16660;SDS011;8444;52.012;5.048;2023-02-28T01:48:53;3.53;;;2.70;;
16660;SDS011;8444;52.012;5.048;2023-02-28T01:51:41;5.70;;;3.40;;
16660;SDS011;8444;52.012;5.048;2023-02-28T01:54:06;5.10;;;2.83;;
16660;SDS011;8444;52.012;5.048;2023-02-28T01:56:38;4.57;;;2.77;;
16660;SDS011;8444;52.012;5.048;2023-02-28T01:59:06;6.80;;;4.10;;
16660;SDS011;8444;52.012;5.048;2023-02-28T02:01:31;6.33;;;3.17;;
16660;SDS011;8444;52.012;5.048;2023-02-28T02:03:57;4.80;;;2.90;;
16660;SDS011;8444;52.012;5.048;2023-02-28T02:06:28;5.40;;;2.83;;
16660;SDS011;8444;52.012;5.048;2023-02-28T02:08:54;6.80;;;3.03;;
16660;SDS011;8444;52.012;5.048;2023-02-28T02:11:20;6.03;;;2.73;;
16660;SDS011;8444;52.012;5.048;2023-02-28T02:13:50;4.80;;;3.67;;
16660;SDS011;8444;52.012;5.048;2023-02-28T02:19:01;4.23;;;2.90;;
16660;SDS011;8444;52.012;5.048;2023-02-28T02:27:03;4.23;;;2.67;;
16660;SDS011;8444;52.012;5.048;2023-02-28T02:32:07;6.00;;;2.57;;
16660;SDS011;8444;52.012;5.048;2023-02-28T02:37:07;6.73;;;3.03;;
16660;SDS011;8444;52.012;5.048;2023-02-28T02:42:23;4.47;;;2.80;;
16660;SDS011;8444;52.012;5.048;2023-02-28T02:45:01;4.57;;;3.03;;
16660;SDS011;8444;52.012;5.048;2023-02-28T02:47:29;4.93;;;3.53;;
16660;SDS011;8444;52.012;5.048;2023-02-28T02:49:56;5.13;;;2.43;;
16660;SDS011;8444;52.012;5.048;2023-02-28T02:52:24;6.30;;;3.20;;
16660;SDS011;8444;52.012;5.048;2023-02-28T02:54:50;5.43;;;2.47;;
16660;SDS011;8444;52.012;5.048;2023-02-28T02:57:22;4.90;;;3.10;;
16660;SDS011;8444;52.012;5.048;2023-02-28T02:59:48;7.00;;;3.00;;
16660;SDS011;8444;52.012;5.048;2023-02-28T03:02:14;3.90;;;2.63;;
16660;SDS011;8444;52.012;5.048;2023-02-28T03:04:56;4.17;;;2.63;;
16660;SDS011;8444;52.012;5.048;2023-02-28T03:07:25;4.27;;;2.70;;
16660;SDS011;8444;52.012;5.048;2023-02-28T03:09:51;5.67;;;2.50;;
16660;SDS011;8444;52.012;5.048;2023-02-28T03:12:17;5.40;;;2.83;;
16660;SDS011;8444;52.012;5.048;2023-02-28T03:14:55;4.43;;;3.17;;
16660;SDS011;8444;52.012;5.048;2023-02-28T03:17:36;5.53;;;2.60;;
16660;SDS011;8444;52.012;5.048;2023-02-28T03:25:44;4.17;;;3.07;;
16660;SDS011;8444;52.012;5.048;2023-02-28T03:28:15;4.87;;;2.67;;
16660;SDS011;8444;52.012;5.048;2023-02-28T03:33:12;5.27;;;2.83;;
16660;SDS011;8444;52.012;5.048;2023-02-28T03:35:40;3.60;;;2.70;;
16660;SDS011;8444;52.012;5.048;2023-02-28T03:38:11;3.67;;;3.00;;
16660;SDS011;8444;52.012;5.048;2023-02-28T03:40:39;5.00;;;2.93;;
16660;SDS011;8444;52.012;5.048;2023-02-28T03:43:09;4.87;;;2.47;;
16660;SDS011;8444;52.012;5.048;2023-02-28T03:45:35;3.87;;;2.77;;
16660;SDS011;8444;52.012;5.048;2023-02-28T03:48:03;4.07;;;2.73;;
16660;SDS011;8444;52.012;5.048;2023-02-28T03:50:34;5.70;;;2.80;;
16660;SDS011;8444;52.012;5.048;2023-02-28T03:53:02;4.30;;;3.17;;
16660;SDS011;8444;52.012;5.048;2023-02-28T03:55:30;3.23;;;2.73;;
16660;SDS011;8444;52.012;5.048;2023-02-28T03:58:20;3.43;;;2.73;;
16660;SDS011;8444;52.012;5.048;2023-02-28T04:00:48;5.33;;;3.13;;
16660;SDS011;8444;52.012;5.048;2023-02-28T04:03:14;3.27;;;2.60;;
16660;SDS011;8444;52.012;5.048;2023-02-28T04:05:47;5.87;;;3.17;;
16660;SDS011;8444;52.012;5.048;2023-02-28T04:08:12;5.60;;;2.90;;
16660;SDS011;8444;52.012;5.048;2023-02-28T04:10:38;3.40;;;2.50;;
16660;SDS011;8444;52.012;5.048;2023-02-28T04:13:03;4.67;;;3.13;;
16660;SDS011;8444;52.012;5.048;2023-02-28T04:15:28;4.97;;;2.90;;
16660;SDS011;8444;52.012;5.048;2023-02-28T04:17:54;5.77;;;3.13;;
16660;SDS011;8444;52.012;5.048;2023-02-28T04:20:19;4.23;;;3.20;;
16660;SDS011;8444;52.012;5.048;2023-02-28T04:22:44;7.90;;;3.07;;
16660;SDS011;8444;52.012;5.048;2023-02-28T04:25:09;5.30;;;2.77;;
16660;SDS011;8444;52.012;5.048;2023-02-28T04:27:34;7.77;;;3.00;;
16660;SDS011;8444;52.012;5.048;2023-02-28T04:30:00;4.07;;;3.17;;
16660;SDS011;8444;52.012;5.048;2023-02-28T04:32:25;5.60;;;3.23;;
16660;SDS011;8444;52.012;5.048;2023-02-28T04:34:50;5.40;;;3.10;;
16660;SDS011;8444;52.012;5.048;2023-02-28T04:37:15;8.57;;;3.13;;
16660;SDS011;8444;52.012;5.048;2023-02-28T04:39:41;4.13;;;3.10;;
16660;SDS011;8444;52.012;5.048;2023-02-28T04:42:06;6.07;;;3.87;;
16660;SDS011;8444;52.012;5.048;2023-02-28T04:44:31;4.17;;;3.30;;
16660;SDS011;8444;52.012;5.048;2023-02-28T04:46:56;3.83;;;3.13;;
16660;SDS011;8444;52.012;5.048;2023-02-28T04:49:22;4.60;;;3.20;;
16660;SDS011;8444;52.012;5.048;2023-02-28T04:51:47;7.37;;;3.77;;
16660;SDS011;8444;52.012;5.048;2023-02-28T04:54:12;5.73;;;3.40;;
16660;SDS011;8444;52.012;5.048;2023-02-28T04:56:38;4.73;;;3.37;;
16660;SDS011;8444;52.012;5.048;2023-02-28T04:59:03;5.07;;;3.43;;
16660;SDS011;8444;52.012;5.048;2023-02-28T05:01:30;6.50;;;3.20;;
16660;SDS011;8444;52.012;5.048;2023-02-28T05:03:56;4.73;;;2.80;;
16660;SDS011;8444;52.012;5.048;2023-02-28T05:06:25;4.87;;;3.20;;
16660;SDS011;8444;52.012;5.048;2023-02-28T05:08:51;6.03;;;3.33;;
16660;SDS011;8444;52.012;5.048;2023-02-28T05:11:18;2.37;;;2.00;;
16660;SDS011;8444;52.012;5.048;2023-02-28T05:13:44;3.13;;;2.50;;
16660;SDS011;8444;52.012;5.048;2023-02-28T05:16:10;4.37;;;2.93;;
16660;SDS011;8444;52.012;5.048;2023-02-28T05:18:35;5.17;;;2.80;;
16660;SDS011;8444;52.012;5.048;2023-02-28T05:21:00;2.97;;;2.20;;
16660;SDS011;8444;52.012;5.048;2023-02-28T05:23:28;4.67;;;2.33;;
16660;SDS011;8444;52.012;5.048;2023-02-28T05:25:54;4.33;;;2.30;;
16660;SDS011;8444;52.012;5.048;2023-02-28T05:28:19;2.90;;;2.00;;
16660;SDS011;8444;52.012;5.048;2023-02-28T05:30:45;3.67;;;1.97;;
16660;SDS011;8444;52.012;5.048;2023-02-28T05:33:10;4.00;;;2.40;;
16660;SDS011;8444;52.012;5.048;2023-02-28T05:35:37;4.70;;;2.20;;
16660;SDS011;8444;52.012;5.048;2023-02-28T05:38:03;4.00;;;2.53;;
16660;SDS011;8444;52.012;5.048;2023-02-28T05:40:28;3.07;;;1.93;;
16660;SDS011;8444;52.012;5.048;2023-02-28T05:42:53;3.50;;;2.50;;
16660;SDS011;8444;52.012;5.048;2023-02-28T05:45:18;3.60;;;2.17;;
16660;SDS011;8444;52.012;5.048;2023-02-28T05:47:44;6.23;;;2.40;;
16660;SDS011;8444;52.012;5.048;2023-02-28T05:50:09;3.07;;;2.67;;
16660;SDS011;8444;52.012;5.048;2023-02-28T05:52:35;5.97;;;2.67;;
16660;SDS011;8444;52.012;5.048;2023-02-28T05:55:00;5.23;;;2.53;;
16660;SDS011;8444;52.012;5.048;2023-02-28T05:57:26;4.40;;;2.63;;
16660;SDS011;8444;52.012;5.048;2023-02-28T05:59:51;3.43;;;2.70;;
16660;SDS011;8444;52.012;5.048;2023-02-28T06:02:17;3.23;;;2.53;;
16660;SDS011;8444;52.012;5.048;2023-02-28T06:04:42;2.93;;;2.47;;
16660;SDS011;8444;52.012;5.048;2023-02-28T06:07:08;3.57;;;2.77;;
16660;SDS011;8444;52.012;5.048;2023-02-28T06:09:33;3.53;;;2.50;;
16660;SDS011;8444;52.012;5.048;2023-02-28T06:11:59;3.73;;;2.43;;
16660;SDS011;8444;52.012;5.048;2023-02-28T06:14:24;4.83;;;2.87;;
16660;SDS011;8444;52.012;5.048;2023-02-28T06:16:50;3.13;;;2.47;;
16660;SDS011;8444;52.012;5.048;2023-02-28T06:19:15;6.07;;;2.60;;
16660;SDS011;8444;52.012;5.048;2023-02-28T06:21:41;4.60;;;2.60;;
16660;SDS011;8444;52.012;5.048;2023-02-28T06:24:06;2.60;;;2.40;;
16660;SDS011;8444;52.012;5.048;2023-02-28T06:26:32;5.03;;;2.60;;
16660;SDS011;8444;52.012;5.048;2023-02-28T06:28:57;2.93;;;2.63;;
16660;SDS011;8444;52.012;5.048;2023-02-28T06:31:22;3.53;;;2.57;;
16660;SDS011;8444;52.012;5.048;2023-02-28T06:33:49;2.83;;;2.53;;
16660;SDS011;8444;52.012;5.048;2023-02-28T06:36:15;5.73;;;2.97;;
16660;SDS011;8444;52.012;5.048;2023-02-28T06:38:40;5.50;;;3.37;;
16660;SDS011;8444;52.012;5.048;2023-02-28T06:41:06;4.60;;;2.83;;
16660;SDS011;8444;52.012;5.048;2023-02-28T06:43:32;4.20;;;3.00;;
16660;SDS011;8444;52.012;5.048;2023-02-28T06:45:59;4.37;;;2.87;;
16660;SDS011;8444;52.012;5.048;2023-02-28T06:48:25;4.70;;;3.27;;
16660;SDS011;8444;52.012;5.048;2023-02-28T06:50:51;5.07;;;3.03;;
16660;SDS011;8444;52.012;5.048;2023-02-28T06:53:16;8.47;;;3.93;;
16660;SDS011;8444;52.012;5.048;2023-02-28T06:55:41;6.50;;;4.17;;
16660;SDS011;8444;52.012;5.048;2023-02-28T06:58:06;4.23;;;3.40;;
16660;SDS011;8444;52.012;5.048;2023-02-28T07:00:39;7.13;;;3.60;;
16660;SDS011;8444;52.012;5.048;2023-02-28T07:03:05;5.37;;;3.90;;
16660;SDS011;8444;52.012;5.048;2023-02-28T07:05:30;4.40;;;4.00;;
16660;SDS011;8444;52.012;5.048;2023-02-28T07:07:55;10.63;;;4.50;;
16660;SDS011;8444;52.012;5.048;2023-02-28T07:10:21;4.17;;;3.13;;
16660;SDS011;8444;52.012;5.048;2023-02-28T07:12:47;4.67;;;3.60;;
16660;SDS011;8444;52.012;5.048;2023-02-28T07:15:12;4.70;;;3.27;;
16660;SDS011;8444;52.012;5.048;2023-02-28T07:17:37;4.07;;;3.20;;
16660;SDS011;8444;52.012;5.048;2023-02-28T07:20:02;6.63;;;3.40;;
16660;SDS011;8444;52.012;5.048;2023-02-28T07:22:29;5.33;;;3.53;;
16660;SDS011;8444;52.012;5.048;2023-02-28T07:24:54;3.90;;;3.13;;
16660;SDS011;8444;52.012;5.048;2023-02-28T07:27:19;5.73;;;3.57;;
16660;SDS011;8444;52.012;5.048;2023-02-28T07:29:49;4.60;;;3.13;;
16660;SDS011;8444;52.012;5.048;2023-02-28T07:32:14;4.23;;;3.57;;
16660;SDS011;8444;52.012;5.048;2023-02-28T07:34:39;7.67;;;3.80;;
16660;SDS011;8444;52.012;5.048;2023-02-28T07:37:04;5.27;;;3.93;;
16660;SDS011;8444;52.012;5.048;2023-02-28T07:39:30;5.80;;;3.60;;
16660;SDS011;8444;52.012;5.048;2023-02-28T07:41:55;6.30;;;3.67;;
16660;SDS011;8444;52.012;5.048;2023-02-28T07:44:20;9.03;;;3.73;;
16660;SDS011;8444;52.012;5.048;2023-02-28T07:46:46;3.80;;;3.40;;
16660;SDS011;8444;52.012;5.048;2023-02-28T07:49:11;4.90;;;4.03;;
16660;SDS011;8444;52.012;5.048;2023-02-28T07:51:36;4.90;;;4.10;;
16660;SDS011;8444;52.012;5.048;2023-02-28T07:54:01;5.93;;;4.17;;
16660;SDS011;8444;52.012;5.048;2023-02-28T07:56:26;7.63;;;3.97;;
16660;SDS011;8444;52.012;5.048;2023-02-28T07:58:52;5.50;;;4.73;;
16660;SDS011;8444;52.012;5.048;2023-02-28T08:01:17;6.93;;;4.60;;
16660;SDS011;8444;52.012;5.048;2023-02-28T08:03:44;6.57;;;4.03;;
16660;SDS011;8444;52.012;5.048;2023-02-28T08:06:14;9.50;;;4.10;;
16660;SDS011;8444;52.012;5.048;2023-02-28T08:08:40;7.13;;;4.73;;
16660;SDS011;8444;52.012;5.048;2023-02-28T08:11:05;5.50;;;4.13;;
16660;SDS011;8444;52.012;5.048;2023-02-28T08:13:30;6.57;;;4.07;;
16660;SDS011;8444;52.012;5.048;2023-02-28T08:15:55;5.90;;;4.37;;
16660;SDS011;8444;52.012;5.048;2023-02-28T08:18:21;4.47;;;3.53;;
16660;SDS011;8444;52.012;5.048;2023-02-28T08:20:46;6.33;;;4.00;;
16660;SDS011;8444;52.012;5.048;2023-02-28T08:23:12;6.27;;;3.80;;
16660;SDS011;8444;52.012;5.048;2023-02-28T08:25:37;5.67;;;4.57;;
16660;SDS011;8444;52.012;5.048;2023-02-28T08:28:02;4.90;;;3.87;;
16660;SDS011;8444;52.012;5.048;2023-02-28T08:30:27;7.37;;;4.60;;
16660;SDS011;8444;52.012;5.048;2023-02-28T08:32:53;5.83;;;4.43;;
16660;SDS011;8444;52.012;5.048;2023-02-28T08:35:18;11.67;;;5.00;;
16660;SDS011;8444;52.012;5.048;2023-02-28T08:37:43;5.43;;;4.00;;
16660;SDS011;8444;52.012;5.048;2023-02-28T08:40:08;5.47;;;3.27;;
16660;SDS011;8444;52.012;5.048;2023-02-28T08:42:34;5.10;;;3.80;;
16660;SDS011;8444;52.012;5.048;2023-02-28T08:44:59;5.13;;;3.60;;
16660;SDS011;8444;52.012;5.048;2023-02-28T08:47:24;4.43;;;3.23;;
16660;SDS011;8444;52.012;5.048;2023-02-28T08:49:49;6.27;;;3.77;;
16660;SDS011;8444;52.012;5.048;2023-02-28T08:52:15;6.10;;;3.40;;
16660;SDS011;8444;52.012;5.048;2023-02-28T08:54:40;4.43;;;2.80;;
16660;SDS011;8444;52.012;5.048;2023-02-28T08:57:05;3.13;;;2.70;;
16660;SDS011;8444;52.012;5.048;2023-02-28T08:59:31;2.97;;;2.53;;
16660;SDS011;8444;52.012;5.048;2023-02-28T09:01:56;4.57;;;2.60;;
16660;SDS011;8444;52.012;5.048;2023-02-28T09:04:21;2.63;;;2.40;;
16660;SDS011;8444;52.012;5.048;2023-02-28T09:06:47;3.47;;;3.00;;
16660;SDS011;8444;52.012;5.048;2023-02-28T09:09:13;3.57;;;2.40;;
16660;SDS011;8444;52.012;5.048;2023-02-28T09:11:38;4.00;;;2.43;;
16660;SDS011;8444;52.012;5.048;2023-02-28T09:14:04;5.17;;;2.73;;
16660;SDS011;8444;52.012;5.048;2023-02-28T09:16:29;2.70;;;2.50;;
16660;SDS011;8444;52.012;5.048;2023-02-28T09:18:55;4.23;;;2.57;;
16660;SDS011;8444;52.012;5.048;2023-02-28T09:21:21;3.73;;;2.37;;
16660;SDS011;8444;52.012;5.048;2023-02-28T09:23:47;3.03;;;2.60;;
16660;SDS011;8444;52.012;5.048;2023-02-28T09:26:23;4.00;;;2.60;;
16660;SDS011;8444;52.012;5.048;2023-02-28T09:28:48;3.27;;;2.30;;
16660;SDS011;8444;52.012;5.048;2023-02-28T09:31:18;2.53;;;2.33;;
16660;SDS011;8444;52.012;5.048;2023-02-28T09:33:45;3.77;;;2.60;;
16660;SDS011;8444;52.012;5.048;2023-02-28T09:36:11;3.97;;;2.63;;
16660;SDS011;8444;52.012;5.048;2023-02-28T09:38:36;3.33;;;2.40;;
16660;SDS011;8444;52.012;5.048;2023-02-28T09:41:02;2.60;;;1.97;;
16660;SDS011;8444;52.012;5.048;2023-02-28T09:43:29;3.20;;;2.00;;
16660;SDS011;8444;52.012;5.048;2023-02-28T09:46:03;2.70;;;1.83;;
16660;SDS011;8444;52.012;5.048;2023-02-28T09:48:37;3.20;;;2.17;;
16660;SDS011;8444;52.012;5.048;2023-02-28T09:53:48;3.20;;;1.80;;
16660;SDS011;8444;52.012;5.048;2023-02-28T09:59:01;2.60;;;1.90;;
16660;SDS011;8444;52.012;5.048;2023-02-28T10:06:36;3.10;;;1.73;;
16660;SDS011;8444;52.012;5.048;2023-02-28T10:09:04;2.60;;;1.50;;
16660;SDS011;8444;52.012;5.048;2023-02-28T10:11:32;1.40;;;1.30;;
16660;SDS011;8444;52.012;5.048;2023-02-28T10:14:02;1.47;;;1.30;;
16660;SDS011;8444;52.012;5.048;2023-02-28T10:18:57;1.60;;;1.50;;
16660;SDS011;8444;52.012;5.048;2023-02-28T10:21:35;2.87;;;1.50;;
16660;SDS011;8444;52.012;5.048;2023-02-28T10:24:20;2.37;;;1.50;;
16660;SDS011;8444;52.012;5.048;2023-02-28T10:26:46;1.70;;;1.60;;
16660;SDS011;8444;52.012;5.048;2023-02-28T10:29:12;2.13;;;1.73;;
16660;SDS011;8444;52.012;5.048;2023-02-28T10:31:38;2.50;;;2.10;;
16660;SDS011;8444;52.012;5.048;2023-02-28T10:34:04;2.53;;;1.90;;
16660;SDS011;8444;52.012;5.048;2023-02-28T10:36:31;2.23;;;1.73;;
16660;SDS011;8444;52.012;5.048;2023-02-28T10:38:56;5.17;;;2.07;;
16660;SDS011;8444;52.012;5.048;2023-02-28T10:41:29;1.93;;;1.63;;
16660;SDS011;8444;52.012;5.048;2023-02-28T10:44:12;1.90;;;1.70;;
16660;SDS011;8444;52.012;5.048;2023-02-28T10:46:39;2.20;;;1.53;;
16660;SDS011;8444;52.012;5.048;2023-02-28T10:49:05;3.90;;;1.70;;
16660;SDS011;8444;52.012;5.048;2023-02-28T10:51:37;1.67;;;1.57;;
16660;SDS011;8444;52.012;5.048;2023-02-28T10:54:03;1.90;;;1.47;;
16660;SDS011;8444;52.012;5.048;2023-02-28T10:56:29;2.30;;;1.73;;
16660;SDS011;8444;52.012;5.048;2023-02-28T11:01:39;1.80;;;1.57;;
16660;SDS011;8444;52.012;5.048;2023-02-28T11:06:43;3.33;;;1.70;;
16660;SDS011;8444;52.012;5.048;2023-02-28T11:11:46;2.37;;;1.50;;
16660;SDS011;8444;52.012;5.048;2023-02-28T11:14:17;1.67;;;1.50;;
16660;SDS011;8444;52.012;5.048;2023-02-28T11:16:44;1.70;;;1.47;;
16660;SDS011;8444;52.012;5.048;2023-02-28T11:19:15;1.37;;;1.27;;
16660;SDS011;8444;52.012;5.048;2023-02-28T11:21:45;2.27;;;1.67;;
16660;SDS011;8444;52.012;5.048;2023-02-28T11:26:45;1.70;;;1.60;;
16660;SDS011;8444;52.012;5.048;2023-02-28T11:29:32;1.60;;;1.30;;
16660;SDS011;8444;52.012;5.048;2023-02-28T11:34:37;2.00;;;1.60;;
16660;SDS011;8444;52.012;5.048;2023-02-28T11:37:03;2.50;;;1.37;;
16660;SDS011;8444;52.012;5.048;2023-02-28T11:39:30;3.77;;;1.43;;
16660;SDS011;8444;52.012;5.048;2023-02-28T11:54:51;1.63;;;1.50;;
16660;SDS011;8444;52.012;5.048;2023-02-28T11:57:25;1.90;;;1.33;;
16660;SDS011;8444;52.012;5.048;2023-02-28T12:00:07;1.73;;;1.63;;
16660;SDS011;8444;52.012;5.048;2023-02-28T12:02:44;2.13;;;1.57;;
16660;SDS011;8444;52.012;5.048;2023-02-28T12:05:13;1.47;;;1.30;;
16660;SDS011;8444;52.012;5.048;2023-02-28T12:10:19;1.87;;;1.50;;
16660;SDS011;8444;52.012;5.048;2023-02-28T12:15:18;2.03;;;1.70;;
16660;SDS011;8444;52.012;5.048;2023-02-28T12:18:05;12.07;;;5.37;;
16660;SDS011;8444;52.012;5.048;2023-02-28T12:20:44;2.10;;;1.60;;
16660;SDS011;8444;52.012;5.048;2023-02-28T12:26:03;3.77;;;1.90;;
16660;SDS011;8444;52.012;5.048;2023-02-28T12:28:35;1.77;;;1.50;;
16660;SDS011;8444;52.012;5.048;2023-02-28T12:31:19;1.90;;;1.80;;
16660;SDS011;8444;52.012;5.048;2023-02-28T12:33:47;2.13;;;1.93;;
16660;SDS011;8444;52.012;5.048;2023-02-28T12:36:16;2.80;;;1.43;;
16660;SDS011;8444;52.012;5.048;2023-02-28T12:38:45;2.13;;;1.70;;
16660;SDS011;8444;52.012;5.048;2023-02-28T12:43:38;2.00;;;1.37;;
16660;SDS011;8444;52.012;5.048;2023-02-28T12:46:16;2.03;;;1.43;;
16660;SDS011;8444;52.012;5.048;2023-02-28T12:48:50;3.57;;;1.67;;
16660;SDS011;8444;52.012;5.048;2023-02-28T12:51:17;4.17;;;3.17;;
16660;SDS011;8444;52.012;5.048;2023-02-28T12:56:30;2.30;;;1.80;;
16660;SDS011;8444;52.012;5.048;2023-02-28T12:59:45;1.63;;;1.40;;
16660;SDS011;8444;52.012;5.048;2023-02-28T13:09:24;1.63;;;1.30;;
16660;SDS011;8444;52.012;5.048;2023-02-28T13:11:51;1.50;;;1.40;;
16660;SDS011;8444;52.012;5.048;2023-02-28T13:14:21;3.87;;;1.70;;
16660;SDS011;8444;52.012;5.048;2023-02-28T13:16:48;2.27;;;1.70;;
16660;SDS011;8444;52.012;5.048;2023-02-28T13:19:16;1.55;;;1.45;;
16660;SDS011;8444;52.012;5.048;2023-02-28T13:21:43;2.07;;;1.60;;
16660;SDS011;8444;52.012;5.048;2023-02-28T13:24:09;1.93;;;1.70;;
16660;SDS011;8444;52.012;5.048;2023-02-28T13:29:01;1.60;;;1.33;;
16660;SDS011;8444;52.012;5.048;2023-02-28T13:31:27;1.43;;;1.33;;
16660;SDS011;8444;52.012;5.048;2023-02-28T13:36:30;4.07;;;1.93;;
16660;SDS011;8444;52.012;5.048;2023-02-28T13:39:00;5.73;;;2.77;;
16660;SDS011;8444;52.012;5.048;2023-02-28T13:44:17;3.00;;;2.00;;
16660;SDS011;8444;52.012;5.048;2023-02-28T13:52:11;4.10;;;2.57;;
16660;SDS011;8444;52.012;5.048;2023-02-28T13:57:13;4.30;;;2.80;;
16660;SDS011;8444;52.012;5.048;2023-02-28T13:59:46;5.97;;;2.20;;
16660;SDS011;8444;52.012;5.048;2023-02-28T14:02:58;4.90;;;2.30;;
16660;SDS011;8444;52.012;5.048;2023-02-28T14:05:06;2.60;;;1.80;;
16660;SDS011;8444;52.012;5.048;2023-02-28T14:07:39;3.10;;;2.07;;
16660;SDS011;8444;52.012;5.048;2023-02-28T14:10:08;1.97;;;1.60;;
16660;SDS011;8444;52.012;5.048;2023-02-28T14:12:53;1.87;;;1.40;;
16660;SDS011;8444;52.012;5.048;2023-02-28T14:17:53;4.40;;;1.80;;
16660;SDS011;8444;52.012;5.048;2023-02-28T14:20:19;2.30;;;1.60;;
16660;SDS011;8444;52.012;5.048;2023-02-28T14:25:23;2.00;;;1.50;;
16660;SDS011;8444;52.012;5.048;2023-02-28T14:38:20;6.20;;;3.30;;
16660;SDS011;8444;52.012;5.048;2023-02-28T14:40:47;3.70;;;2.70;;
16660;SDS011;8444;52.012;5.048;2023-02-28T14:43:21;3.40;;;2.07;;
16660;SDS011;8444;52.012;5.048;2023-02-28T14:45:49;1.67;;;1.57;;
16660;SDS011;8444;52.012;5.048;2023-02-28T14:48:15;2.93;;;2.00;;
16660;SDS011;8444;52.012;5.048;2023-02-28T14:50:40;2.07;;;1.70;;
16660;SDS011;8444;52.012;5.048;2023-02-28T14:53:15;3.37;;;2.50;;
16660;SDS011;8444;52.012;5.048;2023-02-28T14:55:43;2.47;;;1.93;;
16660;SDS011;8444;52.012;5.048;2023-02-28T14:58:18;3.70;;;2.73;;
16660;SDS011;8444;52.012;5.048;2023-02-28T15:00:48;2.97;;;2.07;;
16660;SDS011;8444;52.012;5.048;2023-02-28T15:05:55;2.13;;;1.73;;
16660;SDS011;8444;52.012;5.048;2023-02-28T15:08:20;2.73;;;1.93;;
16660;SDS011;8444;52.012;5.048;2023-02-28T15:11:07;2.93;;;1.80;;
16660;SDS011;8444;52.012;5.048;2023-02-28T15:13:44;2.43;;;1.90;;
16660;SDS011;8444;52.012;5.048;2023-02-28T15:16:22;2.87;;;2.33;;
16660;SDS011;8444;52.012;5.048;2023-02-28T15:21:20;2.20;;;1.90;;
16660;SDS011;8444;52.012;5.048;2023-02-28T15:26:30;1.93;;;1.60;;
16660;SDS011;8444;52.012;5.048;2023-02-28T15:29:01;1.73;;;1.60;;
16660;SDS011;8444;52.012;5.048;2023-02-28T15:31:28;1.93;;;1.63;;
16660;SDS011;8444;52.012;5.048;2023-02-28T15:33:57;1.67;;;1.57;;
16660;SDS011;8444;52.012;5.048;2023-02-28T15:36:28;2.00;;;1.80;;
16660;SDS011;8444;52.012;5.048;2023-02-28T15:38:53;3.97;;;2.07;;
16660;SDS011;8444;52.012;5.048;2023-02-28T15:41:26;2.77;;;1.80;;
16660;SDS011;8444;52.012;5.048;2023-02-28T15:46:35;2.30;;;1.63;;
16660;SDS011;8444;52.012;5.048;2023-02-28T15:49:01;3.07;;;1.93;;
16660;SDS011;8444;52.012;5.048;2023-02-28T15:51:29;2.77;;;1.83;;
16660;SDS011;8444;52.012;5.048;2023-02-28T15:53:58;3.33;;;2.00;;
16660;SDS011;8444;52.012;5.048;2023-02-28T15:58:53;2.43;;;1.80;;
16660;SDS011;8444;52.012;5.048;2023-02-28T16:01:26;2.20;;;1.87;;
16660;SDS011;8444;52.012;5.048;2023-02-28T16:03:53;2.80;;;1.97;;
16660;SDS011;8444;52.012;5.048;2023-02-28T16:06:21;2.83;;;1.90;;
16660;SDS011;8444;52.012;5.048;2023-02-28T16:08:49;2.50;;;1.73;;
16660;SDS011;8444;52.012;5.048;2023-02-28T16:11:16;2.27;;;1.63;;
16660;SDS011;8444;52.012;5.048;2023-02-28T16:13:41;2.77;;;1.43;;
16660;SDS011;8444;52.012;5.048;2023-02-28T16:16:06;1.83;;;1.60;;
16660;SDS011;8444;52.012;5.048;2023-02-28T16:18:32;3.60;;;1.70;;
16660;SDS011;8444;52.012;5.048;2023-02-28T16:20:57;2.07;;;1.80;;
16660;SDS011;8444;52.012;5.048;2023-02-28T16:23:22;1.80;;;1.60;;
16660;SDS011;8444;52.012;5.048;2023-02-28T16:25:47;2.57;;;1.80;;
16660;SDS011;8444;52.012;5.048;2023-02-28T16:28:24;2.77;;;2.00;;
16660;SDS011;8444;52.012;5.048;2023-02-28T16:30:51;1.97;;;1.50;;
16660;SDS011;8444;52.012;5.048;2023-02-28T16:33:16;3.07;;;1.93;;
16660;SDS011;8444;52.012;5.048;2023-02-28T16:35:42;2.37;;;1.93;;
16660;SDS011;8444;52.012;5.048;2023-02-28T16:38:07;2.93;;;1.63;;
16660;SDS011;8444;52.012;5.048;2023-02-28T16:40:33;2.37;;;1.57;;
16660;SDS011;8444;52.012;5.048;2023-02-28T16:42:58;2.47;;;2.27;;
16660;SDS011;8444;52.012;5.048;2023-02-28T16:45:25;3.87;;;1.77;;
16660;SDS011;8444;52.012;5.048;2023-02-28T16:47:51;1.97;;;1.70;;
16660;SDS011;8444;52.012;5.048;2023-02-28T16:52:44;1.83;;;1.67;;
16660;SDS011;8444;52.012;5.048;2023-02-28T16:55:10;4.23;;;2.10;;
16660;SDS011;8444;52.012;5.048;2023-02-28T16:57:35;4.30;;;2.00;;
16660;SDS011;8444;52.012;5.048;2023-02-28T17:00:01;3.27;;;2.43;;
16660;SDS011;8444;52.012;5.048;2023-02-28T17:02:26;2.40;;;2.20;;
16660;SDS011;8444;52.012;5.048;2023-02-28T17:04:51;2.47;;;1.80;;
16660;SDS011;8444;52.012;5.048;2023-02-28T17:07:16;3.73;;;2.30;;
16660;SDS011;8444;52.012;5.048;2023-02-28T17:09:42;3.37;;;2.13;;
16660;SDS011;8444;52.012;5.048;2023-02-28T17:12:07;2.13;;;1.90;;
16660;SDS011;8444;52.012;5.048;2023-02-28T17:14:33;2.77;;;1.90;;